Chillan, Chile

10:52 PM CLT on February 09, 2016 (GMT -0300)
Carriel Sur International | | Change Station
CLOSE
Current Station
Airport
Location: Concepcion,
Elevation: 52 ft
Nearby Weather Stations

Elev 52 ft 36.78 °S, 73.06 °W | Updated 52 minutes ago

Clear
Clear
66 °F
Feels Like 66 °F
N
5
Wind Variable Wind from SSW

Today
High -- | Low -- °F
--% Chance of Precip.
Yesterday
High -- | Low -- °F
Precip. -- in
Pressure 29.89 in
Visibility -9999.0 miles
Clouds
Dew Point 55 °F
Humidity 68%
Rainfall 0.00 in
Snow Depth Not available.
7:12 AM 8:51 PM
Waxing Crescent, 3% visible
METAR SCIE 100100Z 21004KT CAVOK 19/13 Q1012
Pressure 29.89 in
Visibility -9999.0 miles
Clouds
Dew Point 55 °F
Humidity 68%
Rainfall 0.00 in
Snow Depth Not available.
7:12 AM 8:51 PM
Waxing Crescent, 3% visible
METAR SCIE 100100Z 21004KT CAVOK 19/13 Q1012

10-Day Weather Forecast

No radar image for this location.
×

Almanac

Astronomy

Feb. 09, 2016 Rise Set
Actual Time
Civil Twilight
Nautical Twilight
Astronomical Twilight
Moon
Length of Visible Light
Length of Day
Tomorrow will be .
, % of the Moon is Illuminated

Today's Extremes

Country Highs Country Lows

Community

WunderPhotos

Upload Photos

1,891,760 photos uploaded!

WunderBlog® & News

Nearby

Air Quality

  Air Quality AQ Index Pollutant
Not available.

Snow Depth

Station Depth Elevation

Earthquake Activity

City Distance Mag. Time & Date
Minimum magnitude displayed is 2.5.

Coastal Water Temperatures

Place Temperature

Stations

Nearby Weather Stations

Station Location Temp. Windchill Dew Point Humidity Wind Precip. Elev Updated Type